METAR Data
IDs: Format: Raw Decoded Include TAF

Data at: 0427 UTC 20 Oct 2018

PAIG 200356Z AUTO 20007KT 10SM OVC038 07/02 A2929 RMK AO2 SLP930 T00720017 $
PAIG 200256Z AUTO 23007KT 10SM BKN042 08/04 A2926 RMK AO2 SLP921 T00830044 53014 $
PAIG 200156Z AUTO 23007KT 10SM CLR 09/03 A2924 RMK AO2 SLP912 T00890028 $
PAIG 200056Z AUTO 24012G17KT 10SM BKN042 10/02 A2923 RMK AO2 SLP907 T01000017 $
PAIG 192356Z AUTO 27011G20KT 10SM CLR 09/01 A2922 RMK AO2 SLP906 T00940011 10094 20028 53004 $
PAIG 192256Z AUTO 26015G20KT 10SM SCT030 08/02 A2921 RMK AO2 SLP903 T00830017 $
PAIG 192249Z AUTO 26014G22KT 10SM BKN028 08/02 A2921 RMK AO2 $
PAIG 192240Z AUTO 27013G21KT 10SM SCT028 08/02 A2921 RMK AO2 $
PAIG 192156Z AUTO 27013G20KT 10SM BKN026 07/02 A2921 RMK AO2 SLP902 T00720022 $
PAIG 192153Z AUTO 27014G20KT 10SM BKN026 07/02 A2921 RMK AO2 $
PAIG 192056Z AUTO 25014G21KT 10SM CLR 06/02 A2920 RMK AO2 SLP898 T00610022 58010 $
PAIG 191956Z AUTO 24012G17KT 10SM CLR 06/02 A2921 RMK AO2 SLP903 T00560022 $
PAIG 191856Z AUTO 26005KT 10SM FEW075 SCT120 04/02 A2923 RMK AO2 SLP907 T00440022 $
PAIG 191756Z AUTO 22010KT 10SM OVC070 03/02 A2923 RMK AO2 SLP908 60000 T00280022 10078 20028 56029 $
PAIG 191656Z AUTO 22007KT 10SM BKN055 OVC065 03/02 A2925 RMK AO2 SLP915 T00330022 $
PAIG 191556Z AUTO 26007KT 10SM BKN042 OVC070 04/04 A2928 RMK AO2 SLP926 T00440039 $
PAIG 191456Z AUTO 27006KT 10SM OVC040 06/04 A2931 RMK AO2 SLP937 60000 T00610039 56041 $
PAIG 191356Z AUTO 31005KT 10SM OVC036 06/04 A2935 RMK AO2 RAE26 SLP950 P0000 T00610039 $
PAIG 191256Z AUTO 31007KT 10SM -RA SCT060 OVC075 06/05 A2939 RMK AO2 RAE05B49 SLP965 P0000 T00610050 $
PAIG 191156Z AUTO 03005KT 10SM -RA BKN047 OVC060 08/06 A2943 RMK AO2 SLP978 P0000 60000 70001 T00780061 10083 20061 58032 $
PAIG 191056Z AUTO 34005KT 10SM -RA OVC070 07/06 A2947 RMK AO2 RAB51 SLP990 P0000 T00720056 $
PAIG 190956Z AUTO 33004KT 10SM BKN100 07/06 A2950 RMK AO2 SLP999 T00670061 $
PAIG 190856Z AUTO 01007KT 10SM FEW015 OVC095 08/07 A2953 RMK AO2 SLP010 T00830072 401060061 58028 $
PAIG 190756Z AUTO 05005KT 10SM BKN120 07/06 A2956 RMK AO2 SLP020 T00720056 $
PAIG 190656Z AUTO 05009KT 10SM FEW047 BKN120 07/04 A2959 RMK AO2 SLP030 T00720044 $
PAIG 190556Z AUTO 07008KT 10SM CLR 07/06 A2961 RMK AO2 SLP038 T00720061 10106 20067 58011 $
PAIG 190456Z AUTO 06013KT 10SM CLR 08/07 A2963 RMK AO2 SLP044 T00780067 $
PAIG 190356Z AUTO 06014G18KT 10SM SCT110 09/06 A2964 RMK AO2 SLP048 T00890061 $
PAIG 190256Z AUTO 06011G15KT 10SM OVC070 09/06 A2964 RMK AO2 SLP049 T00940056 56008 $
PAIG 190156Z AUTO 06012KT 10SM BKN065 OVC080 11/06 A2965 RMK AO2 SLP053 T01060056 $
PAIG 190056Z AUTO 05015G18KT 10SM BKN070 OVC085 11/06 A2965 RMK AO2 SLP053 T01060056 $
PAIG 182356Z AUTO 06014G21KT 10SM SCT060 OVC070 10/06 A2967 RMK AO2 SLP058 60000 T01000061 10106 20067 58008 $
PAIG 182256Z AUTO 06010KT 10SM BKN075 OVC085 10/06 A2968 RMK AO2 RAB07E41 SLP063 P0000 T01000056 $
PAIG 182156Z AUTO 05009KT 10SM OVC080 09/06 A2969 RMK AO2 RAB20E45 SLP064 P0000 T00940056 $
PAIG 182056Z AUTO 06008KT 10SM OVC075 09/05 A2969 RMK AO2 SLP066 T00890050 50002 $
PAIG 181956Z AUTO 05011KT 10SM CLR 09/04 A2970 RMK AO2 SLP067 T00890044 $
PAIG 181856Z AUTO 05010KT 10SM CLR 08/04 A2970 RMK AO2 SLP068 T00830044 $
PAIG 181756Z AUTO 05006KT 10SM CLR 07/04 A2969 RMK AO2 SLP065 60001 T00670039 10078 20061 52006 $
PAIG 181656Z AUTO 09004KT 10SM OVC085 07/04 A2968 RMK AO2 SLP062 T00720044 $